createdAt,value
2019-04-21T00:02:07.256Z,15.70
2019-04-21T00:04:48.458Z,15.70
2019-04-21T00:07:26.471Z,15.60
2019-04-21T00:09:58.209Z,15.60
2019-04-21T00:12:22.038Z,15.60
2019-04-21T00:14:51.285Z,15.60
2019-04-21T00:17:13.186Z,15.50
2019-04-21T00:19:41.247Z,15.50
2019-04-21T00:22:26.124Z,15.50
2019-04-21T00:24:54.354Z,15.40
2019-04-21T00:27:28.375Z,15.40
2019-04-21T00:29:58.757Z,15.40
2019-04-21T00:32:28.116Z,15.40
2019-04-21T00:34:53.446Z,15.30
2019-04-21T00:37:31.532Z,15.30
2019-04-21T00:40:09.199Z,15.30
2019-04-21T00:42:40.273Z,15.20
2019-04-21T00:45:03.511Z,15.20
2019-04-21T00:47:46.189Z,15.20
2019-04-21T00:50:12.701Z,15.20
2019-04-21T00:52:51.290Z,15.10
2019-04-21T00:57:58.533Z,15.10
2019-04-21T01:00:30.731Z,15.00
2019-04-21T01:03:03.251Z,15.00
2019-04-21T01:05:38.560Z,15.00
2019-04-21T01:08:03.083Z,15.00
2019-04-21T01:10:24.761Z,14.90
2019-04-21T01:13:09.854Z,14.90
2019-04-21T01:18:06.358Z,14.80
2019-04-21T01:20:17.701Z,14.80
2019-04-21T01:22:46.163Z,14.80
2019-04-21T01:25:22.686Z,14.70
2019-04-21T01:27:59.335Z,14.70
2019-04-21T01:30:43.089Z,14.70
2019-04-21T01:33:15.221Z,14.70
2019-04-21T01:35:40.211Z,14.60
2019-04-21T01:38:19.117Z,14.60
2019-04-21T01:40:45.083Z,14.60
2019-04-21T01:43:13.808Z,14.50
2019-04-21T01:45:43.477Z,14.50
2019-04-21T01:48:09.944Z,14.50
2019-04-21T01:50:41.829Z,14.50
2019-04-21T01:53:30.882Z,14.40
2019-04-21T01:56:00.581Z,14.40
2019-04-21T01:58:26.976Z,14.40
2019-04-21T02:01:02.296Z,14.30
2019-04-21T02:06:18.206Z,14.30
2019-04-21T02:08:41.537Z,14.30
2019-04-21T02:11:18.863Z,14.20
2019-04-21T02:13:53.730Z,14.20
2019-04-21T02:16:18.534Z,14.20
2019-04-21T02:18:46.454Z,14.10
2019-04-21T02:21:04.061Z,14.10
2019-04-21T02:23:53.838Z,14.10
2019-04-21T02:26:22.585Z,14.10
2019-04-21T02:28:58.571Z,14.00
2019-04-21T02:31:29.170Z,14.00
2019-04-21T02:34:00.236Z,14.00
2019-04-21T02:36:39.595Z,14.00
2019-04-21T02:39:16.466Z,13.90
2019-04-21T02:44:10.461Z,13.90
2019-04-21T02:46:38.009Z,13.80
2019-04-21T02:49:13.477Z,13.80
2019-04-21T02:51:51.049Z,13.80
2019-04-21T02:59:17.206Z,13.70
2019-04-21T03:01:50.501Z,13.70
2019-04-21T03:04:22.195Z,13.70
2019-04-21T03:07:03.765Z,13.60
2019-04-21T03:09:39.142Z,13.60
2019-04-21T03:12:07.074Z,13.60
2019-04-21T03:14:40.830Z,13.60
2019-04-21T03:17:03.459Z,13.50
2019-04-21T03:19:37.863Z,13.50
2019-04-21T03:22:10.221Z,13.40
2019-04-21T03:24:49.264Z,13.40
2019-04-21T03:27:10.449Z,13.40
2019-04-21T03:29:36.997Z,13.40
2019-04-21T03:32:40.203Z,13.40
2019-04-21T03:37:07.747Z,13.30
2019-04-21T03:42:19.690Z,13.30
2019-04-21T03:44:43.623Z,13.30
2019-04-21T03:52:11.831Z,13.20
2019-04-21T03:55:12.388Z,13.10
2019-04-21T03:57:46.300Z,13.10
2019-04-21T04:00:06.557Z,13.10
2019-04-21T04:02:55.557Z,13.10
2019-04-21T04:05:15.076Z,13.00
2019-04-21T04:07:50.152Z,13.00
2019-04-21T04:12:48.704Z,13.00
2019-04-21T04:15:12.149Z,13.00
2019-04-21T04:17:44.221Z,12.90
2019-04-21T04:20:13.799Z,12.90
2019-04-21T04:22:51.690Z,12.90
2019-04-21T04:25:25.258Z,12.90
2019-04-21T04:28:10.229Z,12.80
2019-04-21T04:32:41.989Z,12.80
2019-04-21T04:35:29.335Z,12.80
2019-04-21T04:37:59.091Z,12.70
2019-04-21T04:43:13.251Z,12.70
2019-04-21T04:48:05.963Z,12.70
2019-04-21T04:50:55.468Z,12.60
2019-04-21T04:53:12.697Z,12.60
2019-04-21T04:55:43.319Z,12.60
2019-04-21T04:58:07.619Z,12.60
2019-04-21T05:03:13.542Z,12.60
2019-04-21T05:06:38.837Z,12.50
2019-04-21T05:09:03.943Z,12.50
2019-04-21T05:13:55.397Z,12.50
2019-04-21T05:16:36.360Z,12.50
2019-04-21T05:23:51.189Z,12.40
2019-04-21T05:26:13.797Z,12.40
2019-04-21T05:28:44.611Z,12.40
2019-04-21T05:31:32.801Z,12.40
2019-04-21T05:34:03.056Z,12.40
2019-04-21T05:37:20.239Z,12.40
2019-04-21T05:39:45.115Z,12.40
2019-04-21T05:42:29.322Z,12.40
2019-04-21T05:45:26.837Z,12.30
2019-04-21T05:48:19.209Z,12.30
2019-04-21T05:50:44.141Z,12.30
2019-04-21T05:53:24.129Z,12.30
2019-04-21T05:55:49.181Z,12.30
2019-04-21T05:58:25.138Z,12.30
2019-04-21T06:03:30.716Z,12.30
2019-04-21T06:06:10.381Z,12.30
2019-04-21T06:08:30.844Z,12.30
2019-04-21T06:11:07.348Z,12.30
2019-04-21T06:13:42.802Z,12.30
2019-04-21T06:16:08.827Z,12.30
2019-04-21T06:18:47.980Z,12.30
2019-04-21T06:21:11.512Z,12.30
2019-04-21T06:39:51.532Z,12.40
2019-04-21T06:45:43.638Z,12.40
2019-04-21T06:47:16.180Z,12.40
2019-04-21T06:57:21.887Z,12.50
2019-04-21T06:59:43.605Z,12.50
2019-04-21T07:02:36.126Z,12.50
2019-04-21T07:04:54.853Z,12.50
2019-04-21T07:07:21.768Z,12.60
2019-04-21T07:10:22.524Z,12.60
2019-04-21T07:16:58.247Z,12.70
2019-04-21T07:19:00.023Z,12.70
2019-04-21T07:21:34.238Z,12.80
2019-04-21T07:24:22.595Z,12.80
2019-04-21T07:32:15.379Z,13.00
2019-04-21T07:34:57.844Z,13.00
2019-04-21T07:37:35.319Z,13.00
2019-04-21T07:40:09.462Z,13.10
2019-04-21T07:42:47.760Z,13.10
2019-04-21T07:45:19.541Z,13.10
2019-04-21T07:48:01.930Z,13.10
2019-04-21T07:50:46.646Z,13.20
2019-04-21T07:53:52.546Z,13.30
2019-04-21T07:59:05.312Z,13.30
2019-04-21T08:01:40.077Z,13.40
2019-04-21T08:04:38.233Z,13.50
2019-04-21T08:07:04.886Z,13.50
2019-04-21T08:09:33.028Z,13.70
2019-04-21T08:12:14.549Z,13.70
2019-04-21T08:14:50.806Z,13.80
2019-04-21T08:17:24.598Z,13.80
2019-04-21T08:19:53.659Z,13.90
2019-04-21T08:22:34.429Z,14.00
2019-04-21T08:25:03.323Z,14.10
2019-04-21T08:27:42.926Z,14.20
2019-04-21T08:30:13.723Z,14.30
2019-04-21T08:38:01.033Z,14.50
2019-04-21T08:40:36.692Z,14.60
2019-04-21T08:42:59.834Z,14.60
2019-04-21T08:48:13.149Z,14.80
2019-04-21T08:50:37.653Z,14.80
2019-04-21T08:53:13.855Z,14.90
2019-04-21T08:55:58.702Z,15.00
2019-04-21T08:58:30.822Z,15.10
2019-04-21T09:01:17.241Z,15.10
2019-04-21T09:03:57.161Z,15.20
2019-04-21T09:06:40.318Z,15.30
2019-04-21T09:08:58.229Z,15.40
2019-04-21T09:11:30.713Z,15.60
2019-04-21T09:14:01.476Z,15.60
2019-04-21T09:16:27.327Z,15.70
2019-04-21T09:18:54.086Z,15.80
2019-04-21T09:21:35.809Z,15.80
2019-04-21T09:24:10.272Z,15.90
2019-04-21T09:26:29.521Z,16.00
2019-04-21T09:28:53.386Z,16.10
2019-04-21T09:31:18.021Z,16.20
2019-04-21T09:33:49.023Z,16.20
2019-04-21T09:36:18.501Z,16.30
2019-04-21T09:38:54.688Z,16.30
2019-04-21T09:41:18.969Z,16.40
2019-04-21T09:43:57.236Z,16.40
2019-04-21T09:46:27.617Z,16.60
2019-04-21T09:49:23.892Z,16.70
2019-04-21T09:51:52.888Z,16.70
2019-04-21T09:54:27.806Z,16.90
2019-04-21T09:56:58.559Z,16.90
2019-04-21T09:59:28.214Z,17.00
2019-04-21T10:01:58.869Z,17.00
2019-04-21T10:04:23.198Z,17.10
2019-04-21T10:06:52.010Z,17.20
2019-04-21T10:09:21.793Z,17.20
2019-04-21T10:11:50.521Z,17.30
2019-04-21T10:14:19.791Z,17.30
2019-04-21T10:16:54.037Z,17.40
2019-04-21T10:19:23.662Z,17.50
2019-04-21T10:21:52.144Z,17.50
2019-04-21T10:24:22.290Z,17.60
2019-04-21T10:26:51.415Z,17.60
2019-04-21T10:29:24.272Z,17.70
2019-04-21T10:31:50.514Z,17.70
2019-04-21T10:34:19.228Z,17.80
2019-04-21T10:36:53.079Z,17.90
2019-04-21T10:39:21.786Z,17.90
2019-04-21T10:41:55.243Z,18.00
2019-04-21T10:44:34.693Z,18.10
2019-04-21T10:47:04.683Z,18.10
2019-04-21T10:49:36.809Z,18.20
2019-04-21T10:53:02.798Z,18.20
2019-04-21T10:55:53.280Z,18.20
2019-04-21T10:58:08.564Z,18.30
2019-04-21T11:00:51.529Z,18.40
2019-04-21T11:03:38.455Z,18.50
2019-04-21T11:06:08.765Z,18.60
2019-04-21T11:08:41.680Z,18.60
2019-04-21T11:11:08.075Z,18.70
2019-04-21T11:13:41.123Z,18.70
2019-04-21T11:16:13.081Z,18.80
2019-04-21T11:18:42.207Z,19.10
2019-04-21T11:21:11.157Z,19.20
2019-04-21T11:23:40.510Z,19.20
2019-04-21T11:26:09.984Z,19.20
2019-04-21T11:28:38.937Z,19.20
2019-04-21T11:31:08.924Z,19.20
2019-04-21T11:33:37.711Z,19.30
2019-04-21T11:36:09.050Z,19.50
2019-04-21T11:39:05.463Z,19.80
2019-04-21T11:41:16.068Z,19.90
2019-04-21T11:43:48.792Z,20.20
2019-04-21T11:46:18.321Z,20.50
2019-04-21T11:48:48.259Z,20.60
2019-04-21T11:51:17.191Z,20.50
2019-04-21T11:53:46.580Z,20.80
2019-04-21T11:56:15.226Z,20.70
2019-04-21T11:58:43.989Z,20.80
2019-04-21T12:01:13.753Z,20.90
2019-04-21T12:03:42.383Z,21.00
2019-04-21T12:06:11.154Z,21.00
2019-04-21T12:08:45.701Z,21.00
2019-04-21T12:11:13.766Z,21.00
2019-04-21T12:13:42.401Z,20.90
2019-04-21T12:16:12.774Z,20.80
2019-04-21T12:18:42.858Z,20.80
2019-04-21T12:21:13.620Z,20.70
2019-04-21T12:23:42.877Z,20.80
2019-04-21T12:26:11.741Z,20.80
2019-04-21T12:28:41.702Z,20.90
2019-04-21T12:31:11.960Z,20.90
2019-04-21T12:33:47.928Z,20.90
2019-04-21T12:36:17.760Z,20.90
2019-04-21T12:38:51.936Z,20.90
2019-04-21T12:41:18.381Z,20.90
2019-04-21T12:43:50.783Z,21.10
2019-04-21T12:46:20.058Z,21.20
2019-04-21T12:48:49.695Z,21.30
2019-04-21T12:51:19.691Z,21.30
2019-04-21T12:53:49.768Z,21.40
2019-04-21T12:56:18.321Z,21.50
2019-04-21T12:58:47.166Z,21.50
2019-04-21T13:01:16.763Z,21.60
2019-04-21T13:03:47.944Z,21.70
2019-04-21T13:34:40.096Z,22.10
2019-04-21T13:56:50.413Z,22.30
2019-04-21T14:08:41.607Z,22.20
2019-04-21T14:33:45.889Z,22.20
2019-04-21T14:36:15.005Z,22.20
2019-04-21T14:38:58.762Z,22.20
2019-04-21T14:42:14.441Z,22.20
2019-04-21T14:47:54.242Z,22.20
2019-04-21T14:50:42.195Z,22.20
2019-04-21T15:00:39.796Z,22.20
2019-04-21T15:03:34.211Z,22.20
2019-04-21T15:06:03.289Z,22.20
2019-04-21T15:08:33.481Z,22.20
2019-04-21T15:11:11.719Z,22.20
2019-04-21T15:13:40.169Z,22.10
2019-04-21T15:16:13.007Z,22.10
2019-04-21T15:18:44.608Z,22.10
2019-04-21T15:21:23.555Z,22.10
2019-04-21T15:23:50.888Z,22.20
2019-04-21T15:26:20.058Z,22.10
2019-04-21T15:28:57.089Z,22.10
2019-04-21T15:31:30.629Z,22.10
2019-04-21T15:33:59.306Z,22.00
2019-04-21T15:36:31.555Z,22.00
2019-04-21T15:38:58.162Z,22.00
2019-04-21T15:41:26.816Z,21.90
2019-04-21T15:43:56.387Z,21.90
2019-04-21T15:46:26.724Z,21.80
2019-04-21T15:48:56.997Z,21.80
2019-04-21T15:51:25.993Z,21.80
2019-04-21T15:53:55.619Z,21.80
2019-04-21T15:56:26.863Z,21.80
2019-04-21T15:59:10.504Z,21.70
2019-04-21T16:01:40.973Z,21.70
2019-04-21T16:04:10.725Z,21.70
2019-04-21T16:06:39.482Z,21.70
2019-04-21T16:09:16.203Z,21.60
2019-04-21T16:11:59.981Z,21.60
2019-04-21T16:14:29.026Z,21.60
2019-04-21T16:16:59.024Z,21.50
2019-04-21T16:19:29.168Z,21.50
2019-04-21T16:21:59.076Z,21.50
2019-04-21T16:24:28.208Z,21.50
2019-04-21T16:26:59.924Z,21.50
2019-04-21T16:29:27.254Z,21.50
2019-04-21T16:31:57.243Z,21.50
2019-04-21T16:34:38.937Z,21.50
2019-04-21T16:36:56.332Z,21.50
2019-04-21T16:39:25.302Z,21.50
2019-04-21T16:41:54.168Z,21.50
2019-04-21T16:44:23.160Z,21.50
2019-04-21T16:46:51.810Z,21.40
2019-04-21T16:49:22.086Z,21.40
2019-04-21T16:51:52.435Z,21.40
2019-04-21T16:54:23.936Z,21.30
2019-04-21T16:56:57.635Z,21.30
2019-04-21T16:59:28.698Z,21.30
2019-04-21T17:01:58.815Z,21.30
2019-04-21T17:04:28.615Z,21.30
2019-04-21T17:06:58.918Z,21.30
2019-04-21T17:09:28.563Z,21.30
2019-04-21T17:12:03.376Z,21.20
2019-04-21T17:14:45.294Z,21.20
2019-04-21T17:17:18.050Z,21.10
2019-04-21T17:19:34.789Z,21.10
2019-04-21T17:21:59.729Z,21.10
2019-04-21T17:24:28.682Z,21.10
2019-04-21T17:26:57.452Z,21.00
2019-04-21T17:29:26.120Z,21.00
2019-04-21T17:31:55.286Z,21.00
2019-04-21T17:34:27.709Z,21.00
2019-04-21T17:36:55.030Z,20.90
2019-04-21T17:39:24.900Z,20.90
2019-04-21T17:42:05.652Z,20.90
2019-04-21T17:44:25.573Z,20.90
2019-04-21T17:47:00.830Z,20.80
2019-04-21T17:49:25.224Z,20.80
2019-04-21T17:52:03.956Z,20.80
2019-04-21T17:54:39.261Z,20.80
2019-04-21T17:57:23.266Z,20.70
2019-04-21T18:02:26.376Z,20.70
2019-04-21T18:04:58.591Z,20.60
2019-04-21T18:07:27.192Z,20.60
2019-04-21T18:10:02.125Z,20.60
2019-04-21T18:12:25.044Z,20.60
2019-04-21T18:14:53.123Z,20.50
2019-04-21T18:17:11.789Z,20.50
2019-04-21T18:19:43.343Z,20.40
2019-04-21T18:22:15.344Z,20.40
2019-04-21T18:25:01.616Z,20.40
2019-04-21T18:27:21.919Z,20.40
2019-04-21T18:29:54.664Z,20.30
2019-04-21T18:32:28.219Z,20.30
2019-04-21T18:35:02.192Z,20.30
2019-04-21T18:37:40.869Z,20.30
2019-04-21T18:40:13.679Z,20.20
2019-04-21T18:42:49.263Z,20.20
2019-04-21T18:48:18.349Z,20.20
2019-04-21T18:50:46.323Z,20.10
2019-04-21T18:53:41.400Z,20.10
2019-04-21T18:56:03.744Z,20.10
2019-04-21T18:58:28.667Z,20.00
2019-04-21T19:01:05.449Z,20.00
2019-04-21T19:03:35.871Z,20.00
2019-04-21T19:06:03.889Z,19.90
2019-04-21T19:08:50.666Z,20.00
2019-04-21T20:35:52.326Z,18.90
2019-04-21T20:38:12.329Z,18.90
2019-04-21T20:50:36.429Z,18.70
2019-04-21T20:53:11.120Z,18.70
2019-04-21T20:55:48.560Z,18.70
2019-04-21T20:58:34.631Z,18.60
2019-04-21T21:10:25.120Z,18.50
2019-04-21T21:13:14.220Z,18.40
2019-04-21T21:21:44.175Z,18.30
2019-04-21T21:24:15.911Z,18.30
2019-04-21T21:26:54.953Z,18.30
2019-04-21T21:35:21.887Z,18.20
2019-04-21T21:37:56.212Z,18.20
2019-04-21T21:40:27.131Z,18.10
2019-04-21T21:42:45.696Z,18.10
2019-04-21T21:45:18.349Z,18.10
2019-04-21T21:48:01.019Z,18.10
2019-04-21T21:50:26.171Z,18.00
2019-04-21T21:52:58.798Z,18.00
2019-04-21T21:55:32.318Z,17.90
2019-04-21T21:58:04.405Z,17.90
2019-04-21T22:00:40.392Z,17.90
2019-04-21T22:03:24.436Z,17.90
2019-04-21T22:05:45.598Z,17.90
2019-04-21T22:08:10.326Z,17.80
2019-04-21T22:10:39.161Z,17.80
2019-04-21T22:13:15.948Z,17.80
2019-04-21T22:15:41.655Z,17.80
2019-04-21T22:18:37.861Z,17.70
2019-04-21T22:21:09.381Z,17.70
2019-04-21T22:23:35.386Z,17.70
2019-04-21T22:25:53.760Z,17.70
2019-04-21T22:28:29.607Z,17.70
2019-04-21T22:31:01.054Z,17.60
2019-04-21T22:33:38.667Z,17.60
2019-04-21T22:36:18.150Z,17.50
2019-04-21T22:39:05.139Z,17.50
2019-04-21T22:41:26.348Z,17.50
2019-04-21T22:43:53.554Z,17.50
2019-04-21T22:46:22.332Z,17.50
2019-04-21T22:48:56.541Z,17.40
2019-04-21T22:51:33.546Z,17.40
2019-04-21T22:53:59.069Z,17.40
2019-04-21T22:56:31.628Z,17.40
2019-04-21T22:58:58.994Z,17.30
2019-04-21T23:01:40.542Z,17.30
2019-04-21T23:04:05.222Z,17.30
2019-04-21T23:06:42.650Z,17.30
2019-04-21T23:09:14.907Z,17.30
2019-04-21T23:11:51.498Z,17.20
2019-04-21T23:15:01.810Z,17.20
2019-04-21T23:20:00.006Z,17.20
2019-04-21T23:22:27.952Z,17.10
2019-04-21T23:25:05.860Z,17.10
2019-04-21T23:27:33.296Z,17.10
2019-04-21T23:30:20.167Z,17.10
2019-04-21T23:32:34.207Z,17.00
2019-04-21T23:35:14.274Z,17.00
2019-04-21T23:37:44.653Z,17.00
2019-04-21T23:40:16.294Z,17.00
2019-04-21T23:42:49.147Z,16.90
2019-04-21T23:45:23.814Z,16.90
2019-04-21T23:48:09.718Z,16.90
2019-04-21T23:50:39.396Z,16.90
2019-04-21T23:53:01.601Z,16.80
2019-04-21T23:55:35.465Z,16.80
2019-04-21T23:58:17.820Z,16.80
